地図

経路データ

SID SEASON NUMBER BASIN SUBBASIN NAME ISO_TIME NATURE LAT LON WMO_WIND WMO_PRES WMO_AGENCY TRACK_TYPE DIST2LAND LANDFALL IFLAG USA_AGENCY USA_ATCF_ID USA_LAT USA_LON USA_RECORD USA_STATUS USA_WIND USA_PRES USA_SSHS USA_R34_NE USA_R34_SE USA_R34_SW USA_R34_NW USA_R50_NE USA_R50_SE USA_R50_SW USA_R50_NW USA_R64_NE USA_R64_SE USA_R64_SW USA_R64_NW USA_POCI USA_ROCI USA_RMW USA_EYE TOKYO_LAT TOKYO_LON TOKYO_GRADE TOKYO_WIND TOKYO_PRES TOKYO_R50_DIR TOKYO_R50_LONG TOKYO_R50_SHORT TOKYO_R30_DIR TOKYO_R30_LONG TOKYO_R30_SHORT TOKYO_LAND CMA_LAT CMA_LON CMA_CAT CMA_WIND CMA_PRES HKO_LAT HKO_LON HKO_CAT HKO_WIND HKO_PRES NEWDELHI_LAT NEWDELHI_LON NEWDELHI_GRADE NEWDELHI_WIND NEWDELHI_PRES NEWDELHI_CI NEWDELHI_DP NEWDELHI_POCI REUNION_LAT REUNION_LON REUNION_TYPE REUNION_WIND REUNION_PRES REUNION_TNUM REUNION_CI REUNION_RMW REUNION_R34_NE REUNION_R34_SE REUNION_R34_SW REUNION_R34_NW REUNION_R50_NE REUNION_R50_SE REUNION_R50_SW REUNION_R50_NW REUNION_R64_NE REUNION_R64_SE REUNION_R64_SW REUNION_R64_NW BOM_LAT BOM_LON BOM_TYPE BOM_WIND BOM_PRES BOM_TNUM BOM_CI BOM_RMW BOM_R34_NE BOM_R34_SE BOM_R34_SW BOM_R34_NW BOM_R50_NE BOM_R50_SE BOM_R50_SW BOM_R50_NW BOM_R64_NE BOM_R64_SE BOM_R64_SW BOM_R64_NW BOM_ROCI BOM_POCI BOM_EYE BOM_POS_METHOD BOM_PRES_METHOD NADI_LAT NADI_LON NADI_CAT NADI_WIND NADI_PRES WELLINGTON_LAT WELLINGTON_LON WELLINGTON_WIND WELLINGTON_PRES DS824_LAT DS824_LON DS824_STAGE DS824_WIND DS824_PRES TD9636_LAT TD9636_LON TD9636_STAGE TD9636_WIND TD9636_PRES TD9635_LAT TD9635_LON TD9635_WIND TD9635_PRES TD9635_ROCI NEUMANN_LAT NEUMANN_LON NEUMANN_CLASS NEUMANN_WIND NEUMANN_PRES MLC_LAT MLC_LON MLC_CLASS MLC_WIND MLC_PRES USA_GUST BOM_GUST BOM_GUST_PER REUNION_GUST REUNION_GUST_PER USA_SEAHGT USA_SEARAD_NE USA_SEARAD_SE USA_SEARAD_SW USA_SEARAD_NW STORM_SPEED STORM_DIR
1874215N37287 1874 12 NA NA NOT_NAMED 1874-08-03 00:00:00 ET 36.6000 -73.4000 spur-merge 207 207 _____________O -1 36.6000 -73.4000 EX 35 11 57
1874215N37287 1874 12 NA NA NOT_NAMED 1874-08-03 03:00:00 ET 36.9131 -72.8012 spur-merge 255 255 _____________P -1 36.9131 -72.8012 EX 35 11 58
1874215N37287 1874 12 NA NA NOT_NAMED 1874-08-03 06:00:00 ET 37.2000 -72.2000 spur-merge 282 282 _____________O -1 37.2000 -72.2000 EX 35 11 61
1874215N37287 1874 12 NA NA NOT_NAMED 1874-08-03 09:00:00 ET 37.4497 -71.5992 spur-merge 322 318 _____________P -1 37.4497 -71.5992 EX 37 11 62
1874215N37287 1874 12 NA NA NOT_NAMED 1874-08-03 12:00:00 SS 37.7000 -71.0000 spur-merge 349 349 _____________O -1 37.7000 -71.0000 SS 40 11 60
1874215N37287 1874 12 NA NA NOT_NAMED 1874-08-03 15:00:00 SS 37.9997 -70.3999 spur-merge 364 359 _____________P -1 37.9997 -70.3999 SS 40 11 58
1874215N37287 1874 12 NA NA NOT_NAMED 1874-08-03 18:00:00 SS 38.3000 -69.8000 spur-merge 364 351 _____________O -1 38.3000 -69.8000 SS 40 11 59
1874215N37287 1874 12 NA NA NOT_NAMED 1874-08-03 21:00:00 SS 38.5572 -69.1994 spur-merge 346 340 _____________P -1 38.5572 -69.1994 SS 42 11 62
1874215N37287 1874 12 NA NA NOT_NAMED 1874-08-04 00:00:00 SS 38.8000 -68.6000 spur-merge 343 336 _____________O -1 38.8000 -68.6000 SS 45 11 62
1874215N37287 1874 12 NA NA NOT_NAMED 1874-08-04 03:00:00 SS 39.0497 -67.9996 spur-merge 344 334 _____________P -1 39.0497 -67.9996 SS 47 11 62
1874215N37287 1874 12 NA NA NOT_NAMED 1874-08-04 06:00:00 SS 39.3000 -67.4000 spur-merge 345 342 _____________O -1 39.3000 -67.4000 SS 50 10 62
1874215N37287 1874 12 NA NA NOT_NAMED 1874-08-04 09:00:00 SS 39.5422 -66.7994 spur-merge 363 356 _____________P -1 39.5422 -66.7994 SS 52 11 62
1874215N37287 1874 12 NA NA NOT_NAMED 1874-08-04 12:00:00 SS 39.8000 -66.2000 spur-merge 382 378 _____________O -1 39.8000 -66.2000 SS 55 11 59
1874215N37287 1874 12 NA NA NOT_NAMED 1874-08-04 15:00:00 SS 40.0922 -65.5997 spur-merge 378 345 _____________P -1 40.0922 -65.5997 SS 55 11 57
1874215N37287 1874 12 NA NA NOT_NAMED 1874-08-04 18:00:00 TS 40.4000 -65.0000 spur-merge 345 318 _____________O -1 40.4000 -65.0000 TS 55 11 56
1874215N37287 1874 12 NA NA NOT_NAMED 1874-08-04 21:00:00 TS 40.6997 -64.3995 spur-merge 320 300 _____________P -1 40.6997 -64.3995 TS 55 11 57
1874215N37287 1874 12 NA NA NOT_NAMED 1874-08-05 00:00:00 TS 41.0000 -63.8000 spur-merge 304 294 _____________O -1 41.0000 -63.8000 TS 55 11 56
1874215N37287 1874 12 NA NA NOT_NAMED 1874-08-05 03:00:00 TS 41.2997 -63.1994 spur-merge 298 294 _____________P -1 41.2997 -63.1994 TS 55 11 56
1874215N37287 1874 12 NA NA NOT_NAMED 1874-08-05 06:00:00 TS 41.6000 -62.6000 spur-merge 303 299 _____________O -1 41.6000 -62.6000 TS 55 11 57
1874215N37287 1874 12 NA NA NOT_NAMED 1874-08-05 09:00:00 TS 41.9001 -61.9699 spur-merge 306 296 _____________P -1 41.9001 -61.9699 TS 55 11 56
1874215N37287 1874 12 NA NA NOT_NAMED 1874-08-05 12:00:00 TS 42.2000 -61.4000 spur-merge 299 282 _____________O -1 42.2000 -61.4000 TS 55 10 51
1874215N37287 1874 12 NA NA NOT_NAMED 1874-08-05 15:00:00 TS 42.4995 -60.9692 spur-merge 282 265 _____________P -1 42.4995 -60.9692 TS 55 8 44
1874215N37287 1874 12 NA NA NOT_NAMED 1874-08-05 18:00:00 TS 42.8000 -60.6000 spur-merge 265 244 _____________O -1 42.8000 -60.6000 TS 55 8 43
1874215N37287 1874 12 NA NA NOT_NAMED 1874-08-05 21:00:00 TS 43.0999 -60.1996 spur-merge 244 225 _____________P -1 43.0999 -60.1996 TS 52 8 44
1874215N37287 1874 12 NA NA NOT_NAMED 1874-08-06 00:00:00 TS 43.4000 -59.8000 spur-merge 225 213 _____________O -1 43.4000 -59.8000 TS 50 8 44
1874215N37287 1874 12 NA NA NOT_NAMED 1874-08-06 03:00:00 TS 43.6999 -59.3922 spur-merge 214 208 _____________P -1 43.6999 -59.3922 TS 50 8 44
1874215N37287 1874 12 NA NA NOT_NAMED 1874-08-06 06:00:00 TS 44.0000 -59.0000 spur-merge 209 196 _____________O -1 44.0000 -59.0000 TS 50 8 41
1874215N37287 1874 12 NA NA NOT_NAMED 1874-08-06 09:00:00 TS 44.3072 -58.6496 spur-merge 201 188 _____________P -1 44.3072 -58.6496 TS 45 8 40
1874215N37287 1874 12 NA NA NOT_NAMED 1874-08-06 12:00:00 TS 44.6000 -58.3000 spur-merge 193 191 _____________O -1 44.6000 -58.3000 TS 40 8 45
1874215N37287 1874 12 NA NA NOT_NAMED 1874-08-06 15:00:00 TS 44.8500 -57.8996 spur-merge 198 198 _____________P -1 44.8500 -57.8996 TS 40 8 49
1874215N37287 1874 12 NA NA NOT_NAMED 1874-08-06 18:00:00 ET 45.1000 -57.5000 spur-merge 215 193 _____________O -1 45.1000 -57.5000 EX 40 8 44
1874215N37287 1874 12 NA NA NOT_NAMED 1874-08-06 21:00:00 ET 45.3923 -57.1495 spur-merge 189 148 _____________P -1 45.3876 -57.1383 EX 40 8 39
1874215N37287 1874 12 NA NA NOT_NAMED 1874-08-07 00:00:00 ET 45.7000 -56.8000 spur-merge 148 103 _____________O -1 45.7000 -56.8000 EX 40 9 39
1874215N37287 1874 12 NA NA NOT_NAMED 1874-08-07 03:00:00 ET 46.0678 -56.3636 spur-merge 94 ______________ -1 EX 10 39

IBTrACS Databaseについて

本データベースは、米国NOAAが公開する1842年以降の世界の熱帯低気圧のベストトラックデータアーカイブInternational Best Track Archive for Climate Stewardship (IBTrACS)を、ウェブで閲覧しやすい形式に変換したものです。

最終更新日:2021-11-26